createdAt,value
2023-05-20T00:00:25.914Z,17.60
2023-05-20T00:05:27.924Z,17.70
2023-05-20T00:10:29.848Z,17.70
2023-05-20T00:15:32.845Z,17.70
2023-05-20T00:20:34.923Z,17.80
2023-05-20T00:25:37.413Z,17.80
2023-05-20T00:30:42.415Z,17.90
2023-05-20T00:35:44.379Z,18.00
2023-05-20T00:40:46.518Z,18.10
2023-05-20T00:45:48.885Z,18.10
2023-05-20T00:50:51.830Z,18.10
2023-05-20T00:55:54.404Z,18.10
2023-05-20T01:00:57.136Z,18.20
2023-05-20T01:05:59.323Z,18.20
2023-05-20T01:11:17.824Z,17.90
2023-05-20T01:16:23.446Z,17.80
2023-05-20T01:21:28.595Z,17.80
2023-05-20T01:26:30.572Z,17.90
2023-05-20T01:31:37.039Z,18.00
2023-05-20T01:36:41.080Z,18.00
2023-05-20T01:41:44.082Z,18.00
2023-05-20T01:46:50.198Z,18.00
2023-05-20T01:51:52.232Z,18.10
2023-05-20T01:56:54.273Z,18.10
2023-05-20T02:01:57.846Z,18.00
2023-05-20T02:06:59.908Z,18.00
2023-05-20T02:12:01.933Z,18.00
2023-05-20T02:17:04.127Z,18.10
2023-05-20T02:22:07.361Z,18.10
2023-05-20T02:27:09.448Z,18.10
2023-05-20T02:32:12.671Z,18.10
2023-05-20T02:37:14.860Z,18.10
2023-05-20T02:42:16.861Z,17.90
2023-05-20T02:47:18.922Z,17.90
2023-05-20T02:52:22.088Z,17.90
2023-05-20T02:57:24.247Z,17.90
2023-05-20T03:02:26.389Z,17.90
2023-05-20T03:07:29.243Z,17.90
2023-05-20T03:12:31.438Z,17.70
2023-05-20T03:17:33.466Z,17.50
2023-05-20T03:22:35.441Z,17.40
2023-05-20T03:27:38.123Z,17.40
2023-05-20T03:32:40.896Z,17.30
2023-05-20T03:37:43.380Z,17.20
2023-05-20T03:42:45.501Z,17.00
2023-05-20T03:47:48.356Z,16.80
2023-05-20T03:52:52.506Z,16.80
2023-05-20T03:57:57.320Z,16.70
2023-05-20T04:02:59.572Z,16.70
2023-05-20T04:08:01.916Z,16.60
2023-05-20T04:13:03.933Z,16.50
2023-05-20T04:18:06.480Z,16.30
2023-05-20T04:23:08.618Z,16.30
2023-05-20T04:28:14.159Z,16.30
2023-05-20T04:33:18.558Z,16.30
2023-05-20T04:38:20.549Z,16.30
2023-05-20T04:43:30.211Z,16.30
2023-05-20T04:48:33.766Z,16.30
2023-05-20T04:53:36.764Z,16.30
2023-05-20T04:58:39.716Z,16.40
2023-05-20T05:03:41.681Z,16.50
2023-05-20T05:08:43.730Z,16.60
2023-05-20T05:13:45.940Z,16.60
2023-05-20T05:18:48.957Z,16.70
2023-05-20T05:23:51.182Z,16.80
2023-05-20T05:28:55.079Z,16.90
2023-05-20T05:33:57.778Z,17.10
2023-05-20T05:38:59.767Z,17.10
2023-05-20T05:44:01.867Z,17.20
2023-05-20T05:49:04.523Z,17.30
2023-05-20T05:54:06.557Z,17.30
2023-05-20T05:59:08.579Z,17.40
2023-05-20T06:04:10.631Z,17.40
2023-05-20T06:09:13.427Z,17.60
2023-05-20T06:14:16.572Z,17.70
2023-05-20T06:19:18.513Z,17.70
2023-05-20T06:24:22.353Z,17.80
2023-05-20T06:29:26.047Z,17.70
2023-05-20T06:34:27.977Z,17.70
2023-05-20T06:39:29.931Z,17.70
2023-05-20T06:44:31.918Z,17.70
2023-05-20T06:49:36.278Z,17.70
2023-05-20T06:54:41.440Z,17.80
2023-05-20T06:59:45.763Z,17.80
2023-05-20T07:04:49.665Z,17.90
2023-05-20T07:09:52.819Z,18.10
2023-05-20T07:14:55.448Z,18.20
2023-05-20T07:19:57.554Z,18.30
2023-05-20T07:25:01.150Z,18.40
2023-05-20T07:30:03.327Z,18.50
2023-05-20T07:35:07.459Z,18.60
2023-05-20T07:40:10.881Z,18.60
2023-05-20T07:45:13.665Z,18.60
2023-05-20T07:50:15.839Z,18.70
2023-05-20T07:55:18.587Z,18.80
2023-05-20T08:00:21.130Z,18.90
2023-05-20T08:05:23.062Z,18.90
2023-05-20T08:10:25.504Z,18.90
2023-05-20T08:15:28.710Z,18.90
2023-05-20T08:20:32.350Z,19.00
2023-05-20T08:25:34.730Z,19.00
2023-05-20T08:30:36.995Z,19.20
2023-05-20T08:35:40.620Z,19.40
2023-05-20T08:40:42.664Z,19.50
2023-05-20T08:45:45.105Z,19.50
2023-05-20T08:50:51.982Z,19.60
2023-05-20T08:56:01.435Z,19.70
2023-05-20T09:01:03.614Z,19.90
2023-05-20T09:06:07.296Z,20.00
2023-05-20T09:11:10.395Z,20.10
2023-05-20T09:16:12.817Z,20.20
2023-05-20T09:21:14.834Z,20.30
2023-05-20T09:26:18.539Z,20.30
2023-05-20T09:31:20.766Z,20.50
2023-05-20T09:36:28.335Z,20.70
2023-05-20T09:41:38.338Z,20.80
2023-05-20T09:46:41.316Z,20.80
2023-05-20T09:51:45.223Z,20.80
2023-05-20T09:56:48.106Z,20.70
2023-05-20T10:01:50.085Z,20.70
2023-05-20T10:07:37.811Z,20.70
2023-05-20T10:13:04.719Z,20.70
2023-05-20T10:18:44.649Z,20.70
2023-05-20T10:23:46.567Z,20.90
2023-05-20T10:28:49.477Z,21.00
2023-05-20T10:33:53.942Z,21.10
2023-05-20T10:38:57.155Z,21.20
2023-05-20T10:44:03.564Z,21.20
2023-05-20T10:49:06.005Z,21.30
2023-05-20T10:54:10.645Z,21.30
2023-05-20T10:59:12.847Z,21.40
2023-05-20T11:04:17.253Z,21.40
2023-05-20T11:09:19.383Z,21.60
2023-05-20T11:14:21.967Z,21.80
2023-05-20T11:19:24.113Z,22.00
2023-05-20T11:24:27.744Z,22.00
2023-05-20T11:29:32.194Z,22.00
2023-05-20T11:34:38.025Z,22.10
2023-05-20T11:39:40.339Z,22.20
2023-05-20T11:44:45.585Z,22.40
2023-05-20T11:49:49.585Z,22.60
2023-05-20T11:54:53.609Z,22.70
2023-05-20T11:59:55.932Z,22.80
2023-05-20T12:04:58.287Z,23.00
2023-05-20T12:10:01.925Z,23.20
2023-05-20T12:15:05.068Z,23.40
2023-05-20T12:20:07.633Z,23.50
2023-05-20T12:25:12.301Z,23.50
2023-05-20T12:30:25.032Z,23.50
2023-05-20T12:35:38.022Z,23.60
2023-05-20T12:40:40.268Z,23.70
2023-05-20T12:45:42.323Z,23.80
2023-05-20T12:50:44.796Z,23.80
2023-05-20T12:55:46.894Z,23.80
2023-05-20T13:00:49.029Z,24.00
2023-05-20T13:05:54.111Z,24.40
2023-05-20T13:11:00.319Z,24.60
2023-05-20T13:16:03.151Z,24.70
2023-05-20T13:21:21.447Z,24.60
2023-05-20T13:26:26.301Z,24.70
2023-05-20T13:31:28.950Z,24.90
2023-05-20T13:36:32.906Z,25.00
2023-05-20T13:41:35.276Z,25.00
2023-05-20T13:46:41.477Z,25.00
2023-05-20T13:51:43.909Z,25.20
2023-05-20T13:56:46.200Z,25.30
2023-05-20T14:01:48.538Z,25.20
2023-05-20T14:06:50.972Z,25.40
2023-05-20T14:11:53.216Z,25.60
2023-05-20T14:16:55.577Z,25.90
2023-05-20T14:22:01.392Z,26.20
2023-05-20T14:27:03.951Z,26.30
2023-05-20T14:32:06.654Z,26.20
2023-05-20T14:37:12.189Z,26.30
2023-05-20T14:42:15.758Z,26.40
2023-05-20T14:47:22.444Z,26.30
2023-05-20T14:52:25.156Z,26.40
2023-05-20T14:57:27.504Z,26.40
2023-05-20T15:02:35.902Z,26.60
2023-05-20T15:07:41.765Z,26.70
2023-05-20T15:12:43.806Z,26.80
2023-05-20T15:17:50.891Z,26.70
2023-05-20T15:22:54.409Z,26.70
2023-05-20T15:27:56.524Z,26.80
2023-05-20T15:32:58.978Z,26.60
2023-05-20T15:38:01.190Z,26.50
2023-05-20T15:43:03.576Z,26.30
2023-05-20T15:48:06.212Z,26.20
2023-05-20T15:53:09.260Z,26.20
2023-05-20T15:58:11.649Z,26.20
2023-05-20T16:03:13.818Z,26.20
2023-05-20T16:08:16.182Z,26.20
2023-05-20T16:13:18.197Z,26.20
2023-05-20T16:18:20.629Z,26.20
2023-05-20T16:23:22.927Z,26.00
2023-05-20T16:28:25.872Z,26.00
2023-05-20T16:33:30.620Z,25.90
2023-05-20T16:38:34.511Z,25.90
2023-05-20T16:43:36.836Z,25.90
2023-05-20T16:48:38.920Z,25.70
2023-05-20T16:53:41.057Z,25.60
2023-05-20T16:58:43.029Z,25.50
2023-05-20T17:03:45.123Z,25.50
2023-05-20T17:08:47.378Z,25.40
2023-05-20T17:13:49.468Z,25.30
2023-05-20T17:18:51.673Z,25.20
2023-05-20T17:23:53.741Z,25.10
2023-05-20T17:28:55.712Z,24.90
2023-05-20T17:33:57.790Z,24.90
2023-05-20T17:38:59.907Z,24.80
2023-05-20T17:44:01.982Z,24.70
2023-05-20T17:49:03.917Z,24.70
2023-05-20T17:54:06.252Z,24.60
2023-05-20T17:59:08.399Z,24.60
2023-05-20T18:04:10.628Z,24.60
2023-05-20T18:09:12.656Z,24.70
2023-05-20T18:14:14.832Z,24.50
2023-05-20T18:19:16.967Z,24.40
2023-05-20T18:24:20.506Z,24.30
2023-05-20T18:29:23.475Z,24.20
2023-05-20T18:34:28.492Z,24.10
2023-05-20T18:39:30.582Z,24.10
2023-05-20T18:44:35.455Z,24.00
2023-05-20T18:49:37.755Z,24.00
2023-05-20T18:54:39.989Z,24.00
2023-05-20T18:59:41.998Z,24.00
2023-05-20T19:04:43.839Z,24.10
2023-05-20T19:09:45.721Z,24.00
2023-05-20T19:14:47.654Z,24.00
2023-05-20T19:19:49.766Z,23.90
2023-05-20T19:24:51.659Z,23.90
2023-05-20T19:29:53.723Z,23.80
2023-05-20T19:34:55.854Z,23.60
2023-05-20T19:39:58.035Z,23.30
2023-05-20T19:44:59.876Z,23.40
2023-05-20T19:50:01.944Z,23.30
2023-05-20T19:55:04.221Z,23.30
2023-05-20T20:00:07.296Z,23.40
2023-05-20T20:05:15.386Z,23.30
2023-05-20T20:10:17.321Z,23.20
2023-05-20T20:15:20.676Z,23.10
2023-05-20T20:20:23.547Z,23.20
2023-05-20T20:25:26.789Z,23.30
2023-05-20T20:30:28.739Z,23.20
2023-05-20T20:35:30.805Z,23.20
2023-05-20T20:40:33.400Z,23.20
2023-05-20T20:45:38.290Z,23.10
2023-05-20T20:50:40.189Z,23.00
2023-05-20T20:55:43.216Z,22.90
2023-05-20T21:00:45.807Z,22.90
2023-05-20T21:05:48.625Z,22.80
2023-05-20T21:10:50.532Z,22.60
2023-05-20T21:15:52.429Z,22.50
2023-05-20T21:20:55.654Z,22.40
2023-05-20T21:25:57.575Z,22.50
2023-05-20T21:30:59.429Z,22.50
2023-05-20T21:36:01.386Z,22.50
2023-05-20T21:41:03.306Z,22.40
2023-05-20T21:46:06.231Z,22.40
2023-05-20T21:51:08.184Z,22.30
2023-05-20T21:56:12.870Z,22.20
2023-05-20T22:01:14.878Z,22.00
2023-05-20T22:06:17.113Z,21.80
2023-05-20T22:11:19.750Z,21.80
2023-05-20T22:16:21.886Z,21.80
2023-05-20T22:21:24.573Z,21.70
2023-05-20T22:26:26.801Z,21.60
2023-05-20T22:31:33.614Z,21.60
2023-05-20T22:36:43.489Z,21.60
2023-05-20T22:41:45.415Z,21.50
2023-05-20T22:46:47.590Z,21.40
2023-05-20T22:51:52.748Z,21.40
2023-05-20T22:56:58.075Z,21.30
2023-05-20T23:02:00.314Z,21.30
2023-05-20T23:07:02.180Z,21.20
2023-05-20T23:12:04.394Z,21.10
2023-05-20T23:17:06.575Z,21.10
2023-05-20T23:22:08.531Z,21.00
2023-05-20T23:27:10.499Z,21.00
2023-05-20T23:32:12.374Z,21.00
2023-05-20T23:37:14.263Z,21.00
2023-05-20T23:42:16.239Z,21.00
2023-05-20T23:47:18.686Z,21.00
2023-05-20T23:52:20.666Z,21.00
2023-05-20T23:57:22.696Z,21.00
